Cayman Brac, Cayman Islands
Current Conditions -  °F | °C
As of 10:00 PM on Thursday 30 Oct 2014 (Local Time) from MWCR Reporting Station
Few Clouds Few Clouds  
Wind Chill: 79°   Ceiling: Unl
Heat Index: 82°   Visibility: 6mi
Dew Point: 73°   Wind: 2mph
Humidity: 83%   Direction: NA
Pressure: 29.88"   Gusts: NA
Location:  19.72°N, 79.81°W
Report Text: MWCR 310300Z VRB02KT 9999 FEW018 26/23 Q1012 NOSIG
Loading
Personal Weather Stations






























Interactive Weather Map
Tropical Storm Tracking
New forecast layout! Learn more

10-Day Weather Forecast

Advertisements
Track Severe Weather on mobile